Meteo Giornale » Osservazioni meteo Stati Uniti (USA) » Eau Claire Chippewa Valley
ore: 02:56 - Osservazioni Meteo Eau Claire Chippewa Valley
Lat. 44° 51' N Lon. 91° 29' W Alt. 277 metri s.l.m.
18 °C
Foschia
Temp. 24 Ore
17 °C
32 °C
Sud/Sud-Ovest
7.4 Km/h
Dew point 18 °C
Umidità 100 %
Visibilità 6 Km
Il sole sorge alle ore 06:28
Il sole tramonta alle ore 19:43
| Data e Ora | Cielo e Fenomeni | T °C | DP °C | Um. % | Pres. hPa | Vis. km | Vento km/h | |
|---|---|---|---|---|---|---|---|---|
| Oggi h: 02:56 | Foschia | 18 | 18 | 100 | 1013 | 6 | S/SO 7.4 | |
| Oggi h: 02:53 | Sereno | 18 | 17 | 93 | 1013 | 11 | S/SO 7.4 | |
| Oggi h: 02:46 | Foschia | 17 | 17 | 100 | 1013 | 3 | N 0 | |
| Oggi h: 02:41 | Foschia | 18 | 18 | 100 | 1013 | 5 | N 0 | |
| Oggi h: 02:21 | Foschia | 18 | 18 | 100 | 1013 | 5 | N 0 | |
| Oggi h: 02:10 | Nebbia | 18 | 18 | 100 | 1013 | 2 | N 0 | |
| Oggi h: 01:56 | Foschia | 18 | 18 | 100 | 1013 | 2 | N 0 | |
| Oggi h: 01:45 | Foschia | 18 | 18 | 100 | 1013 | 5 | N 0 | |
| Oggi h: 00:56 | Foschia | 19 | 19 | 100 | 1013 | 10 | N 5.5 | |
| Oggi h: 00:43 | Foschia | 19 | 19 | 100 | 1013 | 5 | N 0 | |
| Oggi h: 00:36 | Foschia | 19 | 19 | 100 | 1012 | 3 | N 0 | |
| Oggi h: 00:30 | Nebbia | 19 | 19 | 100 | 1013 | 2 | N 0 | |
| Oggi h: 00:16 | Foschia | 19 | 19 | 100 | 1012 | 5 | N 0 | |
| Ieri h: 23:56 | Sereno | 21 | 19 | 88 | 1012 | 14 | N 0 | |
| Ieri h: 22:56 | Sereno | 20 | 20 | 100 | 1012 | 14 | N 0 | |
| Ieri h: 21:56 | Sereno | 22 | 21 | 94 | 1012 | 10 | N 0 | |
| Ieri h: 20:56 | Sereno | 24 | 21 | 83 | 1012 | 10 | N 0 | |
| Ieri h: 19:56 | Sereno | 27 | 21 | 69 | 1011 | 10 | N 0 | |
| Ieri h: 18:56 | Sereno | 30 | 21 | 58 | 1011 | 10 | NO 9.3 | |
| Ieri h: 17:56 | Sereno | 32 | 22 | 55 | 1010 | 10 | O 13 | |
| Ieri h: 16:56 | Poco Nuvoloso | 31 | 23 | 62 | 1010 | 10 | O 11.1 | |
| Ieri h: 15:56 | Sereno | 32 | 23 | 59 | 1010 | 10 | O 13 | |
| Ieri h: 14:56 | Sereno | 31 | 23 | 62 | 1010 | 10 | N 9.3 | |
| Ieri h: 13:56 | Sereno | 30 | 23 | 66 | 1010 | 10 | SO 9.3 | |
| Ieri h: 12:56 | Sereno | 30 | 22 | 62 | 1010 | 10 | O 11.1 | |
| Ieri h: 11:56 | Sereno | 28 | 22 | 69 | 1010 | 10 | S/SO 9.3 | |
| Ieri h: 10:56 | Sereno | 28 | 22 | 69 | 1010 | 10 | N 7.4 | |
| Ieri h: 09:56 | Sereno | 26 | 21 | 73 | 1010 | 10 | S 7.4 | |
| Ieri h: 08:56 | Sereno | 24 | 21 | 83 | 1009 | 10 | S/SE 7.4 | |
| Ieri h: 07:56 | Sereno | 23 | 20 | 83 | 1009 | 10 | N 0 | |
| Ieri h: 06:56 | Sereno | 19 | 19 | 100 | 1008 | 11 | N 0 | |
| Ieri h: 05:56 | Sereno | 19 | 18 | 93 | 1008 | 10 | N 0 | |
| Ieri h: 04:56 | Sereno | 21 | 19 | 88 | 1008 | 10 | S/SE 9.3 | |
| Ieri h: 03:56 | Sereno | 21 | 19 | 88 | 1009 | 10 | SE 7.4 | |



